createdAt,value
2022-11-17T00:01:48.997Z,184.85
2022-11-17T00:06:06.967Z,204.60
2022-11-17T00:10:24.214Z,153.30
2022-11-17T00:14:41.507Z,152.00
2022-11-17T00:19:17.528Z,162.27
2022-11-17T00:23:47.470Z,198.80
2022-11-17T00:28:05.046Z,336.92
2022-11-17T00:32:40.818Z,163.40
2022-11-17T00:36:58.102Z,257.17
2022-11-17T00:41:15.330Z,192.70
2022-11-17T00:45:32.698Z,158.20
2022-11-17T00:49:49.900Z,198.45
2022-11-17T00:54:10.133Z,134.63
2022-11-17T00:58:27.324Z,275.15
2022-11-17T01:02:44.628Z,353.98
2022-11-17T01:07:01.827Z,177.00
2022-11-17T01:11:19.809Z,157.70
2022-11-17T01:15:37.068Z,333.10
2022-11-17T01:19:54.280Z,457.88
2022-11-17T01:24:12.931Z,283.85
2022-11-17T01:32:47.571Z,139.20
2022-11-17T01:37:20.057Z,154.07
2022-11-17T01:41:37.233Z,160.73
2022-11-17T01:45:54.756Z,149.25
2022-11-17T01:50:33.599Z,135.88
2022-11-17T01:54:53.345Z,122.15
2022-11-17T01:59:20.050Z,120.63
2022-11-17T02:03:39.779Z,155.90
2022-11-17T02:08:00.952Z,162.45
2022-11-17T02:12:18.991Z,179.85
2022-11-17T02:16:36.155Z,54.53
2022-11-17T02:21:27.320Z,105.72
2022-11-17T02:26:22.036Z,42.78
2022-11-17T02:30:55.879Z,54.25
2022-11-17T02:35:36.209Z,72.57
2022-11-17T02:40:21.730Z,42.90
2022-11-17T02:44:57.816Z,43.58
2022-11-17T02:49:29.451Z,43.33
2022-11-17T02:53:47.972Z,41.60
2022-11-17T02:58:11.359Z,46.33
2022-11-17T03:03:10.229Z,48.03
2022-11-17T03:07:30.363Z,40.03
2022-11-17T03:11:59.811Z,40.20
2022-11-17T03:16:34.950Z,41.22
2022-11-17T03:21:16.554Z,43.95
2022-11-17T03:25:37.580Z,41.72
2022-11-17T03:30:00.574Z,50.20
2022-11-17T03:34:22.015Z,130.27
2022-11-17T03:39:01.432Z,61.50
2022-11-17T03:47:37.763Z,74.43
2022-11-17T03:51:55.495Z,55.07
2022-11-17T03:56:40.092Z,52.60
2022-11-17T04:01:00.679Z,57.88
2022-11-17T04:05:18.132Z,60.60
2022-11-17T04:09:35.299Z,50.63
2022-11-17T04:14:11.308Z,108.35
2022-11-17T04:18:28.521Z,56.78
2022-11-17T04:22:45.703Z,69.93
2022-11-17T04:27:21.863Z,110.60
2022-11-17T04:31:39.155Z,131.00
2022-11-17T04:35:57.205Z,98.50
2022-11-17T04:40:14.730Z,72.97
2022-11-17T04:44:33.166Z,171.02
2022-11-17T04:48:51.931Z,189.65
2022-11-17T04:53:09.094Z,116.47
2022-11-17T04:57:26.354Z,80.07
2022-11-17T05:01:44.374Z,72.90
2022-11-17T05:06:01.546Z,86.93
2022-11-17T05:10:38.823Z,98.25
2022-11-17T05:14:56.086Z,116.22
2022-11-17T05:19:16.386Z,243.38
2022-11-17T05:23:53.097Z,66.60
2022-11-17T05:28:10.379Z,77.88
2022-11-17T05:32:27.615Z,92.90
2022-11-17T05:36:45.568Z,85.05
2022-11-17T05:41:02.775Z,90.93
2022-11-17T05:45:19.962Z,72.85
2022-11-17T05:49:37.119Z,64.03
2022-11-17T05:53:54.334Z,69.93
2022-11-17T05:58:21.287Z,71.22
2022-11-17T06:02:44.357Z,85.93
2022-11-17T06:07:02.457Z,70.22
2022-11-17T06:11:20.024Z,73.45
2022-11-17T06:15:37.764Z,80.00
2022-11-17T06:19:59.762Z,95.87
2022-11-17T06:24:17.606Z,66.20
2022-11-17T06:28:36.163Z,55.27
2022-11-17T06:32:53.714Z,60.63
2022-11-17T06:37:11.539Z,57.85
2022-11-17T06:41:28.889Z,69.50
2022-11-17T06:45:46.767Z,68.07
2022-11-17T06:50:04.940Z,74.67
2022-11-17T06:54:22.236Z,70.72
2022-11-17T06:58:41.517Z,65.97
2022-11-17T07:03:03.689Z,63.22
2022-11-17T07:07:20.943Z,63.65
2022-11-17T07:11:38.194Z,59.97
2022-11-17T07:15:55.389Z,56.55
2022-11-17T07:20:13.215Z,52.30
2022-11-17T07:24:30.442Z,65.90
2022-11-17T07:28:47.652Z,52.25
2022-11-17T07:33:06.128Z,47.85
2022-11-17T07:37:23.308Z,51.58
2022-11-17T07:41:40.690Z,43.42
2022-11-17T07:45:57.935Z,38.10
2022-11-17T07:50:15.995Z,37.47
2022-11-17T07:54:33.203Z,31.30
2022-11-17T07:58:50.392Z,34.03
2022-11-17T08:03:08.132Z,34.33
2022-11-17T08:07:25.397Z,29.65
2022-11-17T08:11:42.593Z,36.63
2022-11-17T08:15:59.916Z,91.18
2022-11-17T08:20:17.148Z,81.40
2022-11-17T08:24:34.331Z,86.60
2022-11-17T08:28:57.915Z,81.72
2022-11-17T08:33:15.630Z,78.50
2022-11-17T08:37:33.191Z,38.80
2022-11-17T08:41:51.838Z,98.07
2022-11-17T08:46:12.882Z,46.50
2022-11-17T08:50:30.126Z,92.28
2022-11-17T08:54:47.308Z,47.03
2022-11-17T08:59:04.748Z,35.90
2022-11-17T09:03:22.017Z,28.25
2022-11-17T09:07:40.211Z,28.23
2022-11-17T09:11:58.272Z,25.60
2022-11-17T09:16:16.845Z,27.10
2022-11-17T09:20:34.126Z,37.15
2022-11-17T09:24:51.329Z,24.58
2022-11-17T09:29:09.424Z,26.45
2022-11-17T09:33:27.066Z,24.58
2022-11-17T09:37:44.668Z,24.85
2022-11-17T09:42:01.953Z,27.05
2022-11-17T09:46:46.538Z,12.63
2022-11-17T09:51:07.962Z,19.67
2022-11-17T09:55:40.824Z,20.73
2022-11-17T10:00:06.450Z,15.52
2022-11-17T10:04:28.343Z,10.95
2022-11-17T10:09:00.373Z,17.48
2022-11-17T10:13:24.724Z,13.15
2022-11-17T10:17:42.687Z,26.83
2022-11-17T10:22:02.728Z,18.40
2022-11-17T10:26:19.929Z,16.80
2022-11-17T10:30:37.276Z,11.27
2022-11-17T10:34:55.121Z,20.10
2022-11-17T10:39:36.941Z,14.73
2022-11-17T10:44:12.455Z,16.33
2022-11-17T10:48:33.014Z,26.45
2022-11-17T10:52:52.150Z,12.85
2022-11-17T10:57:22.072Z,17.00
2022-11-17T11:01:44.573Z,11.80
2022-11-17T11:06:06.639Z,9.77
2022-11-17T11:10:35.179Z,12.13
2022-11-17T11:14:56.405Z,15.18
2022-11-17T11:19:16.474Z,7.53
2022-11-17T11:23:36.673Z,5.75
2022-11-17T11:28:15.916Z,13.52
2022-11-17T11:32:54.488Z,8.30
2022-11-17T11:37:14.989Z,5.93
2022-11-17T11:42:07.963Z,4.07
2022-11-17T11:46:55.950Z,4.05
2022-11-17T11:51:21.057Z,4.05
2022-11-17T11:55:41.494Z,2.58
2022-11-17T12:00:07.919Z,5.13
2022-11-17T12:05:21.744Z,4.55
2022-11-17T12:10:08.318Z,1.83
2022-11-17T12:14:26.013Z,2.35
2022-11-17T12:18:43.494Z,2.08
2022-11-17T12:23:15.938Z,1.90
2022-11-17T12:27:36.295Z,1.90
2022-11-17T12:31:56.089Z,1.85
2022-11-17T12:36:31.558Z,3.08
2022-11-17T12:40:48.866Z,1.40
2022-11-17T12:45:13.315Z,1.83
2022-11-17T12:49:59.892Z,1.45
2022-11-17T12:54:54.462Z,1.00
2022-11-17T12:59:25.572Z,2.05
2022-11-17T13:04:02.581Z,3.13
2022-11-17T13:08:24.043Z,4.45
2022-11-17T13:12:41.277Z,2.63
2022-11-17T13:17:00.437Z,3.33
2022-11-17T13:21:30.150Z,3.83
2022-11-17T13:25:47.790Z,2.92
2022-11-17T13:30:21.509Z,3.78
2022-11-17T13:34:57.339Z,2.28
2022-11-17T13:39:19.669Z,3.95
2022-11-17T13:43:40.537Z,4.53
2022-11-17T13:47:59.413Z,4.22
2022-11-17T13:52:43.604Z,3.67
2022-11-17T13:57:07.414Z,5.30
2022-11-17T14:01:29.246Z,3.92
2022-11-17T14:05:59.015Z,4.50
2022-11-17T14:10:22.312Z,4.35
2022-11-17T14:14:39.659Z,3.88
2022-11-17T14:19:05.727Z,3.10
2022-11-17T14:23:22.955Z,3.20
2022-11-17T14:27:40.416Z,4.18
2022-11-17T14:31:57.688Z,4.18
2022-11-17T14:36:16.402Z,3.05
2022-11-17T14:44:50.714Z,4.90
2022-11-17T14:49:08.484Z,3.88
2022-11-17T14:53:26.296Z,3.50
2022-11-17T14:57:43.525Z,4.43
2022-11-17T15:02:00.777Z,3.78
2022-11-17T15:06:20.332Z,2.00
2022-11-17T15:10:42.930Z,2.78
2022-11-17T15:15:00.165Z,2.90
2022-11-17T15:19:17.467Z,3.28
2022-11-17T15:23:37.579Z,2.38
2022-11-17T15:27:55.980Z,2.58
2022-11-17T15:32:13.213Z,2.85
2022-11-17T15:36:31.767Z,3.75
2022-11-17T15:40:54.512Z,2.63
2022-11-17T15:45:11.738Z,2.70
2022-11-17T15:49:28.940Z,5.28
2022-11-17T15:53:47.850Z,3.70
2022-11-17T15:58:05.044Z,3.55
2022-11-17T16:02:22.286Z,3.33
2022-11-17T16:06:41.344Z,4.38
2022-11-17T16:10:58.605Z,4.00
2022-11-17T16:15:16.598Z,4.38
2022-11-17T16:19:33.778Z,4.97
2022-11-17T16:23:56.065Z,4.63
2022-11-17T16:28:14.020Z,4.75
2022-11-17T16:32:31.675Z,7.87
2022-11-17T16:36:49.179Z,4.05
2022-11-17T16:41:06.672Z,4.28
2022-11-17T16:45:24.454Z,3.35
2022-11-17T16:49:41.835Z,5.88
2022-11-17T16:54:04.995Z,3.55
2022-11-17T16:58:22.449Z,4.22
2022-11-17T17:02:39.940Z,5.80
2022-11-17T17:06:57.439Z,6.18
2022-11-17T17:11:16.275Z,7.28
2022-11-17T17:19:51.279Z,5.68
2022-11-17T17:24:09.998Z,6.05
2022-11-17T17:32:46.519Z,7.03
2022-11-17T17:37:03.965Z,4.15
2022-11-17T17:41:22.524Z,6.85
2022-11-17T17:45:40.017Z,7.05
2022-11-17T17:49:57.416Z,8.45
2022-11-17T17:54:18.008Z,8.15
2022-11-17T17:58:41.429Z,9.35
2022-11-17T18:03:00.856Z,12.43
2022-11-17T18:07:18.469Z,16.88
2022-11-17T18:11:36.587Z,7.30
2022-11-17T18:15:54.056Z,14.05
2022-11-17T18:20:12.087Z,13.75
2022-11-17T18:24:29.513Z,11.67
2022-11-17T18:29:04.974Z,18.98
2022-11-17T18:33:22.486Z,15.07
2022-11-17T18:37:39.830Z,13.07
2022-11-17T18:41:57.397Z,12.85
2022-11-17T18:46:17.794Z,12.75
2022-11-17T18:50:47.524Z,16.00
2022-11-17T18:55:12.324Z,23.67
2022-11-17T18:59:29.554Z,19.00
2022-11-17T19:03:49.441Z,13.40
2022-11-17T19:08:06.802Z,21.30
2022-11-17T19:12:24.214Z,17.20
2022-11-17T19:16:44.767Z,19.20
2022-11-17T19:21:11.556Z,11.38
2022-11-17T19:25:29.017Z,15.27
2022-11-17T19:29:46.432Z,9.68
2022-11-17T19:34:04.723Z,16.05
2022-11-17T19:38:22.142Z,9.32
2022-11-17T19:42:41.684Z,12.10
2022-11-17T19:46:59.126Z,8.65
2022-11-17T19:51:22.874Z,7.82
2022-11-17T19:55:40.432Z,9.80
2022-11-17T19:59:57.923Z,10.63
2022-11-17T20:04:15.342Z,9.80
2022-11-17T20:08:32.739Z,10.43
2022-11-17T20:12:49.944Z,18.50
2022-11-17T20:17:07.160Z,13.00
2022-11-17T20:21:25.553Z,10.30
2022-11-17T20:25:42.740Z,10.38
2022-11-17T20:29:59.923Z,9.60
2022-11-17T20:34:17.307Z,11.82
2022-11-17T20:38:35.925Z,11.55
2022-11-17T20:47:10.252Z,9.68
2022-11-17T20:51:27.531Z,8.65
2022-11-17T20:55:44.706Z,6.90
2022-11-17T21:00:01.883Z,10.57
2022-11-17T21:04:19.126Z,9.00
2022-11-17T21:08:38.538Z,9.50
2022-11-17T21:12:55.691Z,10.27
2022-11-17T21:17:32.917Z,10.38
2022-11-17T21:21:53.740Z,11.90
2022-11-17T21:26:16.887Z,8.88
2022-11-17T21:30:34.070Z,9.38
2022-11-17T21:34:51.756Z,8.73
2022-11-17T21:39:09.035Z,9.25
2022-11-17T21:43:26.232Z,8.07
2022-11-17T21:47:43.412Z,11.68
2022-11-17T21:52:00.824Z,11.00
2022-11-17T21:56:18.153Z,10.35
2022-11-17T22:00:35.449Z,6.60
2022-11-17T22:04:52.667Z,7.43
2022-11-17T22:09:09.944Z,6.85
2022-11-17T22:13:30.447Z,7.30
2022-11-17T22:17:48.699Z,6.88
2022-11-17T22:22:07.263Z,13.70
2022-11-17T22:26:24.683Z,11.65
2022-11-17T22:30:41.847Z,11.75
2022-11-17T22:35:01.665Z,16.00
2022-11-17T22:39:19.215Z,7.75
2022-11-17T22:43:38.135Z,9.75
2022-11-17T22:47:55.339Z,6.82
2022-11-17T22:52:12.826Z,6.32
2022-11-17T22:56:30.230Z,7.70
2022-11-17T23:00:47.425Z,7.50
2022-11-17T23:05:04.903Z,9.60
2022-11-17T23:09:22.176Z,8.25
2022-11-17T23:13:39.403Z,6.35
2022-11-17T23:17:56.629Z,9.73
2022-11-17T23:22:13.868Z,6.63
2022-11-17T23:26:31.040Z,7.20
2022-11-17T23:30:48.229Z,7.30
2022-11-17T23:35:05.767Z,9.88
2022-11-17T23:39:22.974Z,8.77
2022-11-17T23:43:40.649Z,7.28
2022-11-17T23:47:57.828Z,11.65
2022-11-17T23:52:15.064Z,8.77
2022-11-17T23:56:34.297Z,11.05
